Time;durP1;ratioP1;P1;durP2;ratioP2;P2;SDS_P1;SDS_P2;PMS_P1;PMS_P2;Temp;Humidity;BMP_temperature;BMP_pressure;BME280_temperature;BME280_humidity;BME280_pressure;Samples;Min_cycle;Max_cycle;Signal;HPM_P1;HPM_P2
2022/11/08 00:02:11;;;;;;;1999.90;999.90;;;13.70;99.90;;;;;;5093434;28;20179;-67
2022/11/08 00:04:37;;;;;;;1999.90;999.90;;;13.70;99.90;;;;;;5092996;28;20434;-68
2022/11/08 00:15:15;;;;;;;1999.90;999.90;;;13.80;99.90;;;;;;5093369;28;20971;-67
2022/11/08 00:17:41;;;;;;;1999.90;999.90;;;13.80;99.90;;;;;;5096337;28;20404;-67
2022/11/08 00:20:07;;;;;;;1999.90;999.90;;;13.70;99.90;;;;;;5096851;28;20173;-67
2022/11/08 00:22:34;;;;;;;1999.90;999.90;;;13.70;99.90;;;;;;5096296;28;20255;-67
2022/11/08 00:24:59;;;;;;;1999.90;999.90;;;13.70;99.90;;;;;;5092556;28;20454;-67
2022/11/08 00:27:25;;;;;;;1999.90;999.90;;;13.80;99.90;;;;;;5095098;28;20419;-67
2022/11/08 00:29:51;;;;;;;1999.90;999.90;;;13.90;99.90;;;;;;5092825;28;20287;-67
2022/11/08 00:32:20;;;;;;;1999.90;999.90;;;13.90;99.90;;;;;;5094606;28;20469;-67
2022/11/08 00:34:47;;;;;;;1999.90;999.90;;;13.90;99.90;;;;;;5092792;28;20513;-66
2022/11/08 00:37:13;;;;;;;1999.90;999.90;;;14.00;99.90;;;;;;5092404;28;20533;-67
2022/11/08 00:39:39;;;;;;;1999.90;999.90;;;14.00;99.90;;;;;;5092391;28;21121;-67
2022/11/08 00:42:04;;;;;;;1999.90;999.90;;;14.00;99.90;;;;;;5092488;28;20411;-67
2022/11/08 00:44:30;;;;;;;1999.90;999.90;;;14.00;99.90;;;;;;5092317;28;20212;-67
2022/11/08 00:46:55;;;;;;;1999.90;999.90;;;14.00;99.90;;;;;;5092110;28;20185;-67
2022/11/08 00:49:21;;;;;;;1999.90;999.90;;;14.00;99.90;;;;;;5092075;28;20237;-67
2022/11/08 00:51:47;;;;;;;1999.90;999.90;;;14.00;99.90;;;;;;5092347;28;20227;-67
2022/11/08 00:54:16;;;;;;;1999.90;999.90;;;14.10;99.90;;;;;;5092196;28;20470;-67
2022/11/08 00:56:42;;;;;;;1999.90;999.90;;;14.10;99.90;;;;;;5092031;28;20393;-67
2022/11/08 00:59:14;;;;;;;1999.90;999.90;;;14.10;99.90;;;;;;5092403;28;20501;-67
2022/11/08 01:01:40;;;;;;;1999.90;999.90;;;14.10;99.90;;;;;;5092233;28;20811;-67
2022/11/08 01:04:08;;;;;;;1999.90;999.90;;;14.00;99.90;;;;;;5092025;28;20485;-67
2022/11/08 01:06:33;;;;;;;1999.90;999.90;;;14.00;99.90;;;;;;5092104;28;20467;-67
2022/11/08 01:09:00;;;;;;;1999.90;999.90;;;14.00;99.90;;;;;;5092090;28;20459;-67
2022/11/08 01:11:26;;;;;;;1999.90;999.90;;;14.00;99.90;;;;;;5092049;28;20173;-67
2022/11/08 01:13:55;;;;;;;1999.90;999.90;;;13.90;99.90;;;;;;5092128;28;20516;-67
2022/11/08 01:16:24;;;;;;;1999.90;999.90;;;13.90;99.90;;;;;;5091958;28;20171;-67
2022/11/08 01:18:52;;;;;;;1999.90;999.90;;;13.90;99.90;;;;;;5091841;28;20774;-67
2022/11/08 01:21:18;;;;;;;1999.90;999.90;;;13.90;99.90;;;;;;5091954;28;20405;-67
2022/11/08 01:23:45;;;;;;;1999.90;999.90;;;13.90;99.90;;;;;;5091752;28;20440;-67
2022/11/08 01:26:13;;;;;;;1999.90;999.90;;;13.80;99.90;;;;;;5091918;28;20404;-67
2022/11/08 01:28:39;;;;;;;1999.90;999.90;;;13.80;99.90;;;;;;5091712;28;20749;-67
2022/11/08 01:31:07;;;;;;;1999.90;999.90;;;13.80;99.90;;;;;;5095255;28;20454;-67
2022/11/08 01:33:33;;;;;;;1999.90;999.90;;;13.70;99.90;;;;;;5095776;28;20196;-67
2022/11/08 01:35:59;;;;;;;1999.90;999.90;;;13.80;99.90;;;;;;5095968;28;20428;-67
2022/11/08 01:38:25;;;;;;;1999.90;999.90;;;13.80;99.90;;;;;;5095678;28;20824;-67
2022/11/08 01:40:50;;;;;;;1999.90;999.90;;;13.80;99.90;;;;;;5095853;28;20162;-67
2022/11/08 01:43:25;;;;;;;1999.90;999.90;;;13.70;99.90;;;;;;5095815;28;20184;-67
2022/11/08 01:46:11;;;;;;;1999.90;999.90;;;13.60;99.90;;;;;;5095760;28;20175;-67
2022/11/08 01:48:40;;;;;;;1999.90;999.90;;;13.60;99.90;;;;;;5096071;28;20792;-67
2022/11/08 01:51:09;;;;;;;1999.90;999.90;;;13.50;99.90;;;;;;5096461;28;20417;-67
2022/11/08 01:53:35;;;;;;;1999.90;999.90;;;13.40;99.90;;;;;;5095849;28;20958;-67
2022/11/08 01:56:01;;;;;;;1999.90;999.90;;;13.40;99.90;;;;;;5096681;28;20403;-67
2022/11/08 01:58:31;;;;;;;1999.90;999.90;;;13.30;99.90;;;;;;5098633;28;20401;-66
2022/11/08 02:00:58;;;;;;;1999.90;999.90;;;13.30;99.90;;;;;;5098296;28;20402;-66
2022/11/08 02:03:24;;;;;;;1999.90;999.90;;;13.30;99.90;;;;;;5097502;28;20907;-67
2022/11/08 02:05:49;;;;;;;1999.90;999.90;;;13.30;99.90;;;;;;5096389;28;20410;-68
2022/11/08 02:08:31;;;;;;;1999.90;999.90;;;13.20;99.90;;;;;;5096232;28;20176;-67
2022/11/08 02:10:57;;;;;;;1999.90;999.90;;;13.20;99.90;;;;;;5096202;28;20696;-66
2022/11/08 02:13:25;;;;;;;1999.90;999.90;;;13.20;99.90;;;;;;5096522;28;20410;-68
2022/11/08 02:15:51;;;;;;;1999.90;999.90;;;13.00;99.90;;;;;;5096150;28;20513;-68
2022/11/08 02:18:20;;;;;;;1999.90;999.90;;;13.00;99.90;;;;;;5096278;28;20491;-68
2022/11/08 02:21:12;;;;;;;1999.90;999.90;;;12.90;99.90;;;;;;5096316;28;20458;-68
2022/11/08 02:23:56;;;;;;;1999.90;999.90;;;12.90;99.90;;;;;;5095974;28;20461;-67
2022/11/08 02:26:29;;;;;;;1999.90;999.90;;;12.80;99.90;;;;;;5096289;28;20758;-67
2022/11/08 02:28:55;;;;;;;1999.90;999.90;;;12.80;99.90;;;;;;5095579;28;20448;-67
2022/11/08 02:31:21;;;;;;;1999.90;999.90;;;12.70;99.90;;;;;;5096026;28;20408;-68
2022/11/08 02:33:47;;;;;;;1999.90;999.90;;;12.70;99.90;;;;;;5095941;28;20182;-68
2022/11/08 02:36:20;;;;;;;1999.90;999.90;;;12.70;99.90;;;;;;5095725;28;20534;-67
2022/11/08 02:38:50;;;;;;;1999.90;999.90;;;12.60;99.90;;;;;;5095757;28;20898;-68
2022/11/08 02:41:16;;;;;;;1999.90;999.90;;;12.60;99.90;;;;;;5095337;28;20505;-67
2022/11/08 02:43:41;;;;;;;1999.90;999.90;;;12.50;99.90;;;;;;5095145;28;20510;-67
2022/11/08 02:46:07;;;;;;;1999.90;999.90;;;12.50;99.90;;;;;;5094969;28;20248;-67
2022/11/08 02:48:32;;;;;;;1999.90;999.90;;;12.50;99.90;;;;;;5094818;28;20159;-67
2022/11/08 02:50:58;;;;;;;1999.90;999.90;;;12.40;99.90;;;;;;5094790;28;20540;-67
2022/11/08 02:53:24;;;;;;;1999.90;999.90;;;12.40;99.90;;;;;;5094880;28;20166;-67
2022/11/08 02:55:49;;;;;;;1999.90;999.90;;;12.30;99.90;;;;;;5094605;28;20171;-66
2022/11/08 02:58:15;;;;;;;1999.90;999.90;;;12.30;99.90;;;;;;5094453;28;20557;-67
2022/11/08 03:00:40;;;;;;;1999.90;999.90;;;12.30;99.90;;;;;;5094356;28;20190;-67
2022/11/08 03:03:06;;;;;;;1999.90;999.90;;;12.30;99.90;;;;;;5094336;28;20186;-67
2022/11/08 03:05:32;;;;;;;1999.90;999.90;;;12.20;99.90;;;;;;5094560;28;20185;-67
2022/11/08 03:07:58;;;;;;;1999.90;999.90;;;12.20;99.90;;;;;;5093954;28;20166;-68
2022/11/08 03:10:25;;;;;;;1999.90;999.90;;;12.10;99.90;;;;;;5094199;28;20448;-67
2022/11/08 03:12:55;;;;;;;1999.90;999.90;;;12.10;99.90;;;;;;5097632;28;20158;-67
2022/11/08 03:15:20;;;;;;;1999.90;999.90;;;12.00;99.90;;;;;;5094012;28;20428;-67
2022/11/08 03:17:46;;;;;;;1999.90;999.90;;;12.00;99.90;;;;;;5093934;28;20393;-67
2022/11/08 03:20:12;;;;;;;1999.90;999.90;;;12.00;99.90;;;;;;5094005;28;20202;-67
2022/11/08 03:22:37;;;;;;;1999.90;999.90;;;12.00;99.90;;;;;;5093975;28;20181;-67
2022/11/08 03:25:03;;;;;;;1999.90;999.90;;;12.00;99.90;;;;;;5093764;28;20237;-67
2022/11/08 03:27:28;;;;;;;1999.90;999.90;;;12.00;99.90;;;;;;5093715;28;20244;-68
2022/11/08 03:29:54;;;;;;;1999.90;999.90;;;12.00;99.90;;;;;;5093776;28;20461;-67
2022/11/08 03:32:20;;;;;;;1999.90;999.90;;;12.00;99.90;;;;;;5093804;28;20292;-67
2022/11/08 03:34:45;;;;;;;1999.90;999.90;;;11.90;99.90;;;;;;5093639;28;20194;-66
2022/11/08 03:37:11;;;;;;;1999.90;999.90;;;11.90;99.90;;;;;;5093634;28;20250;-68
2022/11/08 03:39:36;;;;;;;1999.90;999.90;;;11.90;99.90;;;;;;5093519;28;20167;-67
2022/11/08 03:42:03;;;;;;;1999.90;999.90;;;11.90;99.90;;;;;;5093743;28;20208;-67
2022/11/08 03:44:30;;;;;;;1999.90;999.90;;;11.80;99.90;;;;;;5093614;28;20205;-67
2022/11/08 03:46:56;;;;;;;1999.90;999.90;;;11.80;99.90;;;;;;5093236;28;20408;-67
2022/11/08 03:49:21;;;;;;;1999.90;999.90;;;11.80;99.90;;;;;;5093333;28;20444;-66
2022/11/08 03:51:47;;;;;;;1999.90;999.90;;;11.70;99.90;;;;;;5093053;28;20485;-66
2022/11/08 03:54:13;;;;;;;1999.90;999.90;;;11.60;99.90;;;;;;5093385;28;20268;-67
2022/11/08 03:56:38;;;;;;;1999.90;999.90;;;11.70;99.90;;;;;;5093129;28;20162;-67
2022/11/08 03:59:04;;;;;;;1999.90;999.90;;;11.60;99.90;;;;;;5093070;28;20215;-67
2022/11/08 04:01:30;;;;;;;1999.90;999.90;;;11.70;99.90;;;;;;5093819;28;20174;-66
2022/11/08 04:03:55;;;;;;;1999.90;999.90;;;11.70;99.90;;;;;;5095158;28;20201;-67
2022/11/08 04:06:21;;;;;;;1999.90;999.90;;;11.60;99.90;;;;;;5093099;28;20175;-68
2022/11/08 04:08:46;;;;;;;1999.90;999.90;;;11.60;99.90;;;;;;5092812;28;20166;-67
2022/11/08 04:16:40;;;;;;;1999.90;999.90;;;11.60;99.90;;;;;;5093078;28;20394;-67
2022/11/08 04:21:52;;;;;;;1999.90;999.90;;;11.70;99.90;;;;;;5093770;28;20231;-67
2022/11/08 04:24:18;;;;;;;1999.90;999.90;;;11.70;99.90;;;;;;5094912;28;20827;-67
2022/11/08 04:26:43;;;;;;;1999.90;999.90;;;11.70;99.90;;;;;;5093066;28;20407;-67
2022/11/08 04:29:09;;;;;;;1999.90;999.90;;;11.70;99.90;;;;;;5096109;28;20235;-67
2022/11/08 04:31:35;;;;;;;1999.90;999.90;;;11.70;99.90;;;;;;5096450;28;20253;-67
2022/11/08 04:34:02;;;;;;;1999.90;999.90;;;11.70;99.90;;;;;;5097085;28;20508;-67
2022/11/08 04:36:27;;;;;;;1999.90;999.90;;;11.70;99.90;;;;;;5092443;28;20493;-67
2022/11/08 04:38:53;;;;;;;1999.90;999.90;;;11.70;99.90;;;;;;5092390;28;20463;-66
2022/11/08 04:41:20;;;;;;;1999.90;999.90;;;11.70;99.90;;;;;;5092703;28;20159;-68
2022/11/08 04:43:47;;;;;;;1999.90;999.90;;;11.70;99.90;;;;;;5092662;28;20220;-67
2022/11/08 04:46:18;;;;;;;1999.90;999.90;;;11.70;99.90;;;;;;5092375;28;20827;-67
2022/11/08 04:48:45;;;;;;;1999.90;999.90;;;11.60;99.90;;;;;;5092170;28;20952;-67
2022/11/08 04:51:20;;;;;;;1999.90;999.90;;;11.60;99.90;;;;;;5092452;28;20399;-68
2022/11/08 04:53:46;;;;;;;1999.90;999.90;;;11.60;99.90;;;;;;5092238;28;20442;-67
2022/11/08 04:56:15;;;;;;;1999.90;999.90;;;11.60;99.90;;;;;;5092265;28;20408;-67
2022/11/08 04:58:43;;;;;;;1999.90;999.90;;;11.50;99.90;;;;;;5092221;28;20455;-67
2022/11/08 05:01:11;;;;;;;1999.90;999.90;;;11.50;99.90;;;;;;5092237;28;20427;-67
2022/11/08 05:03:37;;;;;;;1999.90;999.90;;;11.60;99.90;;;;;;5092075;28;20434;-67
2022/11/08 05:06:05;;;;;;;1999.90;999.90;;;11.50;99.90;;;;;;5094947;28;20400;-67
2022/11/08 05:08:31;;;;;;;1999.90;999.90;;;11.50;99.90;;;;;;5094513;28;20207;-67
2022/11/08 05:11:01;;;;;;;1999.90;999.90;;;11.50;99.90;;;;;;5092073;28;20456;-67
2022/11/08 05:13:27;;;;;;;1999.90;999.90;;;11.60;99.90;;;;;;5092145;28;20588;-67
2022/11/08 05:15:52;;;;;;;1999.90;999.90;;;11.50;99.90;;;;;;5091963;28;20487;-67
2022/11/08 05:18:18;;;;;;;1999.90;999.90;;;11.60;99.90;;;;;;5091945;28;20848;-67
2022/11/08 05:23:27;;;;;;;1999.90;999.90;;;11.60;99.90;;;;;;5091918;28;20884;-67
2022/11/08 05:25:56;;;;;;;1999.90;999.90;;;11.60;99.90;;;;;;5091889;28;20506;-67
2022/11/08 05:28:21;;;;;;;1999.90;999.90;;;11.60;99.90;;;;;;5091741;28;20245;-67
2022/11/08 05:30:54;;;;;;;1999.90;999.90;;;11.50;99.90;;;;;;5091891;28;20543;-67
2022/11/08 05:33:20;;;;;;;1999.90;999.90;;;11.50;99.90;;;;;;5091834;28;20165;-67
2022/11/08 05:35:45;;;;;;;1999.90;999.90;;;11.40;99.90;;;;;;5091899;28;20396;-67
2022/11/08 05:38:11;;;;;;;1999.90;999.90;;;11.40;99.90;;;;;;5091612;28;20254;-67
2022/11/08 05:40:37;;;;;;;1999.90;999.90;;;11.30;99.90;;;;;;5091833;28;20184;-67
2022/11/08 05:43:02;;;;;;;1999.90;999.90;;;11.20;99.90;;;;;;5091834;28;20536;-67
2022/11/08 05:45:28;;;;;;;1999.90;999.90;;;11.10;99.90;;;;;;5091736;28;20702;-66
2022/11/08 05:47:54;;;;;;;1999.90;999.90;;;11.00;99.90;;;;;;5091424;28;20180;-67
2022/11/08 05:50:20;;;;;;;1999.90;999.90;;;10.90;99.90;;;;;;5091670;28;20193;-66
2022/11/08 05:52:46;;;;;;;1999.90;999.90;;;10.80;99.90;;;;;;5091699;28;20425;-67
2022/11/08 05:55:11;;;;;;;1999.90;999.90;;;10.80;99.90;;;;;;5091731;28;20188;-67
2022/11/08 05:57:42;;;;;;;1999.90;999.90;;;10.80;99.90;;;;;;5095270;28;20230;-67
2022/11/08 06:00:08;;;;;;;1999.90;999.90;;;10.70;99.90;;;;;;5095745;28;20174;-68
2022/11/08 06:02:34;;;;;;;1999.90;999.90;;;10.70;99.90;;;;;;5091810;28;20405;-67
2022/11/08 06:05:01;;;;;;;1999.90;999.90;;;10.70;99.90;;;;;;5091482;28;20932;-67
2022/11/08 06:07:27;;;;;;;1999.90;999.90;;;10.70;99.90;;;;;;5091535;28;20670;-67
2022/11/08 06:09:52;;;;;;;1999.90;999.90;;;10.70;99.90;;;;;;5091372;28;20455;-67
2022/11/08 06:12:19;;;;;;;1999.90;999.90;;;10.70;99.90;;;;;;5091489;28;20441;-67
2022/11/08 06:14:44;;;;;;;1999.90;999.90;;;10.70;99.90;;;;;;5091541;28;20606;-67
2022/11/08 06:17:10;;;;;;;1999.90;999.90;;;10.80;99.90;;;;;;5094408;28;20437;-67
2022/11/08 06:19:35;;;;;;;1999.90;999.90;;;10.80;99.90;;;;;;5095096;28;20165;-67
2022/11/08 06:22:01;;;;;;;1999.90;999.90;;;10.90;99.90;;;;;;5095075;28;20180;-67
2022/11/08 06:24:27;;;;;;;1999.90;999.90;;;10.90;99.90;;;;;;5094932;28;20779;-66
2022/11/08 06:26:52;;;;;;;1999.90;999.90;;;10.90;99.90;;;;;;5094885;28;20182;-67
2022/11/08 06:29:18;;;;;;;1999.90;999.90;;;11.00;99.90;;;;;;5094873;28;20192;-67
2022/11/08 06:31:43;;;;;;;1999.90;999.90;;;10.90;99.90;;;;;;5094900;28;20167;-67
2022/11/08 06:34:09;;;;;;;1999.90;999.90;;;10.90;99.90;;;;;;5094775;28;20187;-67
2022/11/08 06:36:35;;;;;;;1999.90;999.90;;;10.90;99.90;;;;;;5094827;28;20166;-67
2022/11/08 06:39:01;;;;;;;1999.90;999.90;;;11.00;99.90;;;;;;5094748;28;20422;-67
2022/11/08 06:41:28;;;;;;;1999.90;999.90;;;11.00;99.90;;;;;;5094693;28;20408;-67
2022/11/08 06:43:54;;;;;;;1999.90;999.90;;;11.00;99.90;;;;;;5094658;28;20217;-67
2022/11/08 06:46:20;;;;;;;1999.90;999.90;;;11.00;99.90;;;;;;5094483;28;20411;-67
2022/11/08 06:48:46;;;;;;;1999.90;999.90;;;10.90;99.90;;;;;;5094358;28;20500;-67
2022/11/08 06:51:12;;;;;;;1999.90;999.90;;;11.00;99.90;;;;;;5094532;28;20216;-67
2022/11/08 06:53:37;;;;;;;1999.90;999.90;;;10.90;99.90;;;;;;5094567;28;20189;-67
2022/11/08 06:56:03;;;;;;;1999.90;999.90;;;11.00;99.90;;;;;;5094252;28;20909;-67
2022/11/08 06:58:29;;;;;;;1999.90;999.90;;;11.00;99.90;;;;;;5094290;28;20542;-67
2022/11/08 07:00:55;;;;;;;1999.90;999.90;;;11.00;99.90;;;;;;5094371;28;20170;-67
2022/11/08 07:03:21;;;;;;;1999.90;999.90;;;11.00;99.90;;;;;;5094324;28;20542;-67
2022/11/08 07:05:46;;;;;;;1999.90;999.90;;;11.10;99.90;;;;;;5094288;28;20401;-67
2022/11/08 07:08:12;;;;;;;1999.90;999.90;;;11.10;99.90;;;;;;5094043;28;20769;-67
2022/11/08 07:10:39;;;;;;;1999.90;999.90;;;11.20;99.90;;;;;;5097039;28;20197;-67
2022/11/08 07:13:09;;;;;;;1999.90;999.90;;;11.20;99.90;;;;;;5097970;28;20162;-67
2022/11/08 07:15:35;;;;;;;1999.90;999.90;;;11.30;99.90;;;;;;5096091;28;20428;-67
2022/11/08 07:18:06;;;;;;;1999.90;999.90;;;11.30;99.90;;;;;;5093792;28;20408;-67
2022/11/08 07:20:32;;;;;;;1999.90;999.90;;;11.40;99.90;;;;;;5098632;28;20404;-67
2022/11/08 07:22:58;;;;;;;1999.90;999.90;;;11.40;99.90;;;;;;5097959;28;20408;-66
2022/11/08 07:25:25;;;;;;;1999.90;999.90;;;11.40;99.90;;;;;;5093890;28;20993;-67
2022/11/08 07:27:54;;;;;;;1999.90;999.90;;;11.40;99.90;;;;;;5095150;28;20770;-66
2022/11/08 07:30:20;;;;;;;1999.90;999.90;;;11.40;99.90;;;;;;5093721;28;20448;-67
2022/11/08 07:32:45;;;;;;;1999.90;999.90;;;11.40;99.90;;;;;;5093785;28;20743;-66
2022/11/08 07:35:11;;;;;;;1999.90;999.90;;;11.40;99.90;;;;;;5093648;28;20303;-67
2022/11/08 07:37:36;;;;;;;1999.90;999.90;;;11.40;99.90;;;;;;5095267;28;20840;-67
2022/11/08 07:40:02;;;;;;;1999.90;999.90;;;11.40;99.90;;;;;;5093580;28;20201;-67
2022/11/08 07:42:28;;;;;;;1999.90;999.90;;;11.50;99.90;;;;;;5093684;28;20175;-67
2022/11/08 07:44:53;;;;;;;1999.90;999.90;;;11.50;99.90;;;;;;5093745;28;20939;-67
2022/11/08 07:47:19;;;;;;;1999.90;999.90;;;11.60;99.90;;;;;;5094037;28;20252;-67
2022/11/08 07:49:44;;;;;;;1999.90;999.90;;;11.70;99.90;;;;;;5093457;28;20202;-67
2022/11/08 07:52:10;;;;;;;1999.90;999.90;;;11.70;99.90;;;;;;5093445;28;20166;-67
2022/11/08 07:54:36;;;;;;;1999.90;999.90;;;11.90;99.90;;;;;;5093231;28;20607;-67
2022/11/08 07:57:01;;;;;;;1999.90;999.90;;;12.00;99.90;;;;;;5093094;28;20215;-67
2022/11/08 07:59:27;;;;;;;1999.90;999.90;;;12.00;99.90;;;;;;5093245;28;20167;-67
2022/11/08 08:01:52;;;;;;;1999.90;999.90;;;12.10;99.90;;;;;;5093344;28;20655;-67
2022/11/08 08:04:18;;;;;;;1999.90;999.90;;;12.10;99.90;;;;;;5093027;28;20253;-67
2022/11/08 08:06:43;;;;;;;1999.90;999.90;;;12.20;99.90;;;;;;5093299;28;20171;-67
2022/11/08 08:09:09;;;;;;;1999.90;999.90;;;12.30;99.90;;;;;;5098265;28;20200;-66
2022/11/08 08:11:34;;;;;;;1999.90;999.90;;;12.30;99.90;;;;;;5098011;28;20259;-67
2022/11/08 08:14:00;;;;;;;1999.90;999.90;;;12.40;99.90;;;;;;5094111;28;20530;-67
2022/11/08 08:16:26;;;;;;;1999.90;999.90;;;12.40;99.90;;;;;;5093150;28;20214;-67
2022/11/08 08:18:51;;;;;;;1999.90;999.90;;;12.50;99.90;;;;;;5096734;28;20841;-67
2022/11/08 08:21:17;;;;;;;1999.90;999.90;;;12.50;99.90;;;;;;5092784;28;20172;-67
2022/11/08 08:23:42;;;;;;;1999.90;999.90;;;12.60;99.90;;;;;;5092717;28;20202;-67
2022/11/08 08:26:08;;;;;;;1999.90;999.90;;;12.60;99.90;;;;;;5093560;28;20171;-68
2022/11/08 08:28:34;;;;;;;1999.90;999.90;;;12.70;99.90;;;;;;5096433;28;20615;-67
2022/11/08 08:30:59;;;;;;;1999.90;999.90;;;12.80;99.90;;;;;;5093352;28;20721;-67
2022/11/08 08:33:25;;;;;;;1999.90;999.90;;;12.80;99.90;;;;;;5092589;28;20183;-67
2022/11/08 08:35:52;;;;;;;1999.90;999.90;;;12.80;99.90;;;;;;5092535;28;20633;-67
2022/11/08 08:38:18;;;;;;;1999.90;999.90;;;12.80;99.90;;;;;;5094158;28;20415;-67
2022/11/08 08:40:43;;;;;;;1999.90;999.90;;;12.90;99.90;;;;;;5093310;28;20500;-67
2022/11/08 08:43:10;;;;;;;1999.90;999.90;;;12.90;99.90;;;;;;5092565;28;20681;-67
2022/11/08 08:45:36;;;;;;;1999.90;999.90;;;12.90;99.90;;;;;;5092464;28;20225;-67
2022/11/08 08:48:02;;;;;;;1999.90;999.90;;;12.90;99.90;;;;;;5092432;28;20757;-67
2022/11/08 08:50:29;;;;;;;1999.90;999.90;;;13.00;99.90;;;;;;5092541;28;20477;-67
2022/11/08 08:53:04;;;;;;;1999.90;999.90;;;13.10;99.90;;;;;;5092249;28;20489;-67
2022/11/08 08:55:30;;;;;;;1999.90;999.90;;;13.10;99.90;;;;;;5092254;28;20471;-67
2022/11/08 08:57:56;;;;;;;1999.90;999.90;;;13.10;99.90;;;;;;5092145;28;20771;-67
2022/11/08 09:00:22;;;;;;;1999.90;999.90;;;13.20;99.90;;;;;;5093114;28;20408;-66
2022/11/08 09:02:48;;;;;;;1999.90;999.90;;;13.20;99.90;;;;;;5096876;28;20590;-66
2022/11/08 09:05:14;;;;;;;1999.90;999.90;;;13.20;99.90;;;;;;5096949;28;20437;-67
2022/11/08 09:07:40;;;;;;;1999.90;999.90;;;13.20;99.90;;;;;;5097982;28;20244;-67
2022/11/08 09:10:08;;;;;;;1999.90;999.90;;;13.30;99.90;;;;;;5096703;28;20567;-67
2022/11/08 09:12:34;;;;;;;1999.90;999.90;;;13.30;99.90;;;;;;5092088;28;20815;-67
2022/11/08 09:15:00;;;;;;;1999.90;999.90;;;13.30;99.90;;;;;;5094475;28;20461;-67
2022/11/08 09:17:27;;;;;;;1999.90;999.90;;;13.30;99.90;;;;;;5091873;28;20490;-67
2022/11/08 09:19:52;;;;;;;1999.90;999.90;;;13.30;99.90;;;;;;5091974;28;20266;-66
2022/11/08 09:22:18;;;;;;;1999.90;999.90;;;13.40;99.90;;;;;;5091907;28;20494;-67
2022/11/08 09:24:44;;;;;;;1999.90;999.90;;;13.30;99.90;;;;;;5094672;28;20206;-67
2022/11/08 09:27:09;;;;;;;1999.90;999.90;;;13.40;99.90;;;;;;5093578;28;20232;-67
2022/11/08 09:29:35;;;;;;;1999.90;999.90;;;13.50;99.90;;;;;;5093633;28;20197;-67
2022/11/08 09:32:01;;;;;;;1999.90;999.90;;;13.50;99.90;;;;;;5094939;28;20229;-67
2022/11/08 09:34:27;;;;;;;1999.90;999.90;;;13.60;99.90;;;;;;5091830;28;20763;-68
2022/11/08 09:36:53;;;;;;;1999.90;999.90;;;13.70;99.90;;;;;;5089927;28;20182;-69
2022/11/08 09:39:19;;;;;;;1999.90;999.90;;;13.80;99.90;;;;;;5092498;28;20196;-69
2022/11/08 09:42:18;;;;;;;1999.90;999.90;;;13.90;99.90;;;;;;5092957;28;20768;-68
2022/11/08 09:45:10;;;;;;;1999.90;999.90;;;14.00;99.90;;;;;;5081600;28;20487;-68
2022/11/08 09:47:41;;;;;;;1999.90;999.90;;;14.10;99.90;;;;;;5092290;28;20492;-68
2022/11/08 09:50:20;;;;;;;1999.90;999.90;;;14.20;99.90;;;;;;5091480;28;20459;-66
2022/11/08 09:53:08;;;;;;;1999.90;999.90;;;14.30;99.90;;;;;;5096938;28;20407;-67
2022/11/08 09:55:53;;;;;;;1999.90;999.90;;;14.30;99.90;;;;;;5100478;28;20818;-66
2022/11/08 09:58:44;;;;;;;1999.90;999.90;;;14.40;99.90;;;;;;5097921;28;20426;-67
2022/11/08 10:01:12;;;;;;;1999.90;999.90;;;14.60;99.90;;;;;;5105275;28;20403;-66
2022/11/08 10:03:38;;;;;;;1999.90;999.90;;;14.60;99.90;;;;;;5105208;28;20842;-67
2022/11/08 10:06:33;;;;;;;1999.90;999.90;;;14.70;99.90;;;;;;5104317;28;20408;-67
2022/11/08 10:09:30;;;;;;;1999.90;999.90;;;14.80;99.90;;;;;;5102519;28;20408;-67
2022/11/08 10:12:04;;;;;;;1999.90;999.90;;;14.90;99.90;;;;;;5095282;28;20390;-67
2022/11/08 10:14:57;;;;;;;1999.90;999.90;;;15.00;99.90;;;;;;5094988;28;20510;-66
2022/11/08 10:17:35;;;;;;;1999.90;999.90;;;15.00;99.90;;;;;;5094985;28;20388;-66
2022/11/08 10:20:03;;;;;;;1999.90;999.90;;;15.10;99.90;;;;;;5095694;28;20400;-66
2022/11/08 10:22:47;;;;;;;1999.90;999.90;;;15.10;99.90;;;;;;5098283;28;20801;-66
2022/11/08 10:25:23;;;;;;;1999.90;999.90;;;15.20;99.90;;;;;;5103464;28;20444;-67
2022/11/08 10:27:55;;;;;;;1999.90;999.90;;;15.30;99.90;;;;;;5085800;28;20440;-66
2022/11/08 10:30:31;;;;;;;1999.90;999.90;;;15.50;99.90;;;;;;5104433;28;20477;-66
2022/11/08 10:32:56;;;;;;;1999.90;999.90;;;15.70;99.90;;;;;;5104386;28;20399;-66
2022/11/08 10:35:37;;;;;;;1999.90;999.90;;;15.80;99.90;;;;;;5099227;28;20749;-68
2022/11/08 10:38:16;;;;;;;1999.90;999.90;;;16.00;99.90;;;;;;5097860;28;20185;-68
2022/11/08 10:40:57;;;;;;;1999.90;999.90;;;16.00;99.90;;;;;;5101490;28;20412;-67
2022/11/08 10:43:41;;;;;;;1999.90;999.90;;;16.20;99.90;;;;;;5098141;28;20417;-68
2022/11/08 10:46:22;;;;;;;1999.90;999.90;;;16.30;99.90;;;;;;5076160;28;20421;-70
2022/11/08 10:48:47;;;;;;;1999.90;999.90;;;16.40;99.90;;;;;;5094349;28;20404;-70
2022/11/08 10:51:13;;;;;;;1999.90;999.90;;;16.60;99.90;;;;;;5096171;28;20596;-71
2022/11/08 10:53:43;;;;;;;1999.90;999.90;;;16.60;99.90;;;;;;5092992;28;20197;-70
2022/11/08 10:56:09;;;;;;;1999.90;999.90;;;16.60;99.90;;;;;;5094197;28;20156;-70
2022/11/08 10:58:39;;;;;;;1999.90;999.90;;;16.80;99.90;;;;;;5093826;28;20416;-70
2022/11/08 11:01:18;;;;;;;1999.90;999.90;;;17.00;99.90;;;;;;5093348;28;20251;-70
2022/11/08 11:03:45;;;;;;;1999.90;999.90;;;17.40;99.90;;;;;;5093897;28;20467;-68
2022/11/08 11:06:29;;;;;;;1999.90;999.90;;;17.60;99.90;;;;;;5093884;28;20449;-67
2022/11/08 11:09:16;;;;;;;1999.90;999.90;;;17.70;99.90;;;;;;5093210;28;20811;-68
2022/11/08 11:11:43;;;;;;;1999.90;999.90;;;17.90;99.90;;;;;;5093773;28;20411;-68
2022/11/08 11:14:22;;;;;;;1999.90;999.90;;;18.10;99.90;;;;;;5093649;28;20426;-68
2022/11/08 11:17:09;;;;;;;1999.90;999.90;;;18.30;99.90;;;;;;5093120;28;20405;-68
2022/11/08 11:19:34;;;;;;;1999.90;999.90;;;18.50;99.90;;;;;;5093503;28;20505;-67
2022/11/08 11:22:05;;;;;;;1999.90;999.90;;;18.70;99.90;;;;;;5093763;28;20883;-68
2022/11/08 11:24:33;;;;;;;1999.90;999.90;;;18.70;99.90;;;;;;5093053;28;20250;-67
2022/11/08 11:27:05;;;;;;;1999.90;999.90;;;18.70;99.90;;;;;;5095376;28;20408;-67
2022/11/08 11:29:36;;;;;;;1999.90;999.90;;;18.70;99.90;;;;;;5095396;28;20469;-67
2022/11/08 11:32:32;;;;;;;1999.90;999.90;;;18.80;99.90;;;;;;5095788;28;20764;-67
2022/11/08 11:35:00;;;;;;;1999.90;999.90;;;19.00;99.90;;;;;;5094237;28;20816;-67
2022/11/08 11:37:38;;;;;;;1999.90;999.90;;;19.20;99.90;;;;;;5092555;28;20450;-67
2022/11/08 11:40:33;;;;;;;1999.90;999.90;;;19.30;99.90;;;;;;5093126;28;20414;-68
2022/11/08 11:43:30;;;;;;;1999.90;999.90;;;19.20;99.90;;;;;;5093410;28;20436;-67
2022/11/08 11:46:16;;;;;;;1999.90;999.90;;;19.00;99.90;;;;;;5092783;28;20401;-67
2022/11/08 11:48:49;;;;;;;1999.90;999.90;;;18.80;99.90;;;;;;5092857;28;20392;-67
2022/11/08 11:51:15;;;;;;;1999.90;999.90;;;18.70;99.90;;;;;;5093131;28;20456;-67
2022/11/08 11:53:41;;;;;;;1999.90;999.90;;;18.70;99.90;;;;;;5092882;28;20854;-68
2022/11/08 11:56:28;;;;;;;1999.90;999.90;;;18.60;99.90;;;;;;5092957;28;20175;-68
2022/11/08 11:59:18;;;;;;;1999.90;999.90;;;18.60;99.90;;;;;;5092816;28;21108;-68
2022/11/08 12:02:13;;;;;;;1999.90;999.90;;;18.60;99.90;;;;;;5093045;28;20414;-66
2022/11/08 12:05:03;;;;;;;1999.90;999.90;;;18.70;99.90;;;;;;5092977;28;20475;-68
2022/11/08 12:07:33;;;;;;;1999.90;999.90;;;18.70;99.90;;;;;;5092067;28;20416;-67
2022/11/08 12:10:29;;;;;;;1999.90;999.90;;;18.80;99.90;;;;;;5092661;28;20450;-67
2022/11/08 12:13:13;;;;;;;1999.90;999.90;;;19.10;99.90;;;;;;5092122;28;20399;-67
2022/11/08 12:16:04;;;;;;;1999.90;999.90;;;19.30;99.90;;;;;;5092082;28;20425;-68
2022/11/08 12:18:41;;;;;;;1999.90;999.90;;;19.50;99.90;;;;;;5092352;28;20495;-68
2022/11/08 12:21:13;;;;;;;1999.90;999.90;;;19.50;99.90;;;;;;5092552;28;20397;-68
2022/11/08 12:24:06;;;;;;;1999.90;999.90;;;19.60;99.90;;;;;;5091849;28;20445;-67
2022/11/08 12:26:53;;;;;;;1999.90;999.90;;;19.80;99.90;;;;;;5092224;28;20487;-67
2022/11/08 12:29:24;;;;;;;1999.90;999.90;;;20.30;99.90;;;;;;5091666;28;20460;-67